sensor_id;sensor_type;location;lat;lon;timestamp;P1;durP1;ratioP1;P2;durP2;ratioP2
60880;SDS011;46729;43.010;24.320;2022-07-23T00:00:09;7.82;;;4.43;;
60880;SDS011;46729;43.010;24.320;2022-07-23T00:02:35;7.13;;;4.10;;
60880;SDS011;46729;43.010;24.320;2022-07-23T00:05:01;8.13;;;4.25;;
60880;SDS011;46729;43.010;24.320;2022-07-23T00:07:26;12.77;;;4.35;;
60880;SDS011;46729;43.010;24.320;2022-07-23T00:09:52;10.45;;;4.55;;
60880;SDS011;46729;43.010;24.320;2022-07-23T00:12:18;8.45;;;4.15;;
60880;SDS011;46729;43.010;24.320;2022-07-23T00:14:44;9.88;;;3.92;;
60880;SDS011;46729;43.010;24.320;2022-07-23T00:17:09;7.18;;;4.68;;
60880;SDS011;46729;43.010;24.320;2022-07-23T00:19:35;7.50;;;4.53;;
60880;SDS011;46729;43.010;24.320;2022-07-23T00:22:01;11.77;;;4.30;;
60880;SDS011;46729;43.010;24.320;2022-07-23T00:24:26;7.00;;;4.38;;
60880;SDS011;46729;43.010;24.320;2022-07-23T00:26:52;8.95;;;4.53;;
60880;SDS011;46729;43.010;24.320;2022-07-23T00:29:17;9.35;;;4.60;;
60880;SDS011;46729;43.010;24.320;2022-07-23T00:31:43;9.93;;;4.47;;
60880;SDS011;46729;43.010;24.320;2022-07-23T00:34:09;8.50;;;3.97;;
60880;SDS011;46729;43.010;24.320;2022-07-23T00:36:34;10.63;;;3.90;;
60880;SDS011;46729;43.010;24.320;2022-07-23T00:39:00;5.70;;;3.95;;
60880;SDS011;46729;43.010;24.320;2022-07-23T00:41:26;9.77;;;4.53;;
60880;SDS011;46729;43.010;24.320;2022-07-23T00:43:51;7.57;;;3.80;;
60880;SDS011;46729;43.010;24.320;2022-07-23T00:46:20;10.30;;;4.00;;
60880;SDS011;46729;43.010;24.320;2022-07-23T00:48:46;10.38;;;4.20;;
60880;SDS011;46729;43.010;24.320;2022-07-23T00:51:12;9.43;;;4.10;;
60880;SDS011;46729;43.010;24.320;2022-07-23T00:53:39;11.23;;;4.80;;
60880;SDS011;46729;43.010;24.320;2022-07-23T00:56:05;9.15;;;3.80;;
60880;SDS011;46729;43.010;24.320;2022-07-23T00:58:31;7.50;;;4.35;;
60880;SDS011;46729;43.010;24.320;2022-07-23T01:00:59;6.22;;;4.18;;
60880;SDS011;46729;43.010;24.320;2022-07-23T01:03:25;12.32;;;4.45;;
60880;SDS011;46729;43.010;24.320;2022-07-23T01:05:50;8.27;;;4.03;;
60880;SDS011;46729;43.010;24.320;2022-07-23T01:08:16;10.20;;;3.72;;
60880;SDS011;46729;43.010;24.320;2022-07-23T01:10:42;10.77;;;4.07;;
60880;SDS011;46729;43.010;24.320;2022-07-23T01:13:08;9.57;;;3.90;;
60880;SDS011;46729;43.010;24.320;2022-07-23T01:15:35;10.77;;;3.78;;
60880;SDS011;46729;43.010;24.320;2022-07-23T01:18:02;8.45;;;4.43;;
60880;SDS011;46729;43.010;24.320;2022-07-23T01:20:30;6.30;;;3.75;;
60880;SDS011;46729;43.010;24.320;2022-07-23T01:22:56;11.77;;;4.38;;
60880;SDS011;46729;43.010;24.320;2022-07-23T01:25:22;10.63;;;3.83;;
60880;SDS011;46729;43.010;24.320;2022-07-23T01:27:48;8.02;;;4.40;;
60880;SDS011;46729;43.010;24.320;2022-07-23T01:30:14;11.43;;;3.70;;
60880;SDS011;46729;43.010;24.320;2022-07-23T01:32:40;7.75;;;3.78;;
60880;SDS011;46729;43.010;24.320;2022-07-23T01:35:06;10.05;;;4.80;;
60880;SDS011;46729;43.010;24.320;2022-07-23T01:37:32;5.85;;;4.20;;
60880;SDS011;46729;43.010;24.320;2022-07-23T01:39:58;8.48;;;4.50;;
60880;SDS011;46729;43.010;24.320;2022-07-23T01:42:24;11.23;;;4.15;;
60880;SDS011;46729;43.010;24.320;2022-07-23T01:44:50;11.80;;;4.13;;
60880;SDS011;46729;43.010;24.320;2022-07-23T01:47:16;8.00;;;4.70;;
60880;SDS011;46729;43.010;24.320;2022-07-23T01:49:42;13.25;;;4.03;;
60880;SDS011;46729;43.010;24.320;2022-07-23T01:52:08;8.70;;;4.57;;
60880;SDS011;46729;43.010;24.320;2022-07-23T01:54:36;9.90;;;3.72;;
60880;SDS011;46729;43.010;24.320;2022-07-23T01:57:03;11.88;;;4.78;;
60880;SDS011;46729;43.010;24.320;2022-07-23T01:59:29;10.30;;;4.32;;
60880;SDS011;46729;43.010;24.320;2022-07-23T02:01:55;9.23;;;3.88;;
60880;SDS011;46729;43.010;24.320;2022-07-23T02:04:21;11.85;;;4.55;;
60880;SDS011;46729;43.010;24.320;2022-07-23T02:06:48;8.25;;;4.25;;
60880;SDS011;46729;43.010;24.320;2022-07-23T02:09:14;7.80;;;4.20;;
60880;SDS011;46729;43.010;24.320;2022-07-23T02:11:40;9.13;;;4.63;;
60880;SDS011;46729;43.010;24.320;2022-07-23T02:14:06;10.70;;;3.88;;
60880;SDS011;46729;43.010;24.320;2022-07-23T02:16:32;12.13;;;4.18;;
60880;SDS011;46729;43.010;24.320;2022-07-23T02:18:58;9.18;;;4.28;;
60880;SDS011;46729;43.010;24.320;2022-07-23T02:21:24;7.38;;;4.20;;
60880;SDS011;46729;43.010;24.320;2022-07-23T02:23:49;6.65;;;3.78;;
60880;SDS011;46729;43.010;24.320;2022-07-23T02:26:15;10.95;;;4.38;;
60880;SDS011;46729;43.010;24.320;2022-07-23T02:28:41;8.10;;;3.75;;
60880;SDS011;46729;43.010;24.320;2022-07-23T02:31:06;7.13;;;3.67;;
60880;SDS011;46729;43.010;24.320;2022-07-23T02:33:32;12.80;;;4.25;;
60880;SDS011;46729;43.010;24.320;2022-07-23T02:35:58;6.07;;;3.78;;
60880;SDS011;46729;43.010;24.320;2022-07-23T02:38:24;9.63;;;4.22;;
60880;SDS011;46729;43.010;24.320;2022-07-23T02:40:50;5.88;;;3.90;;
60880;SDS011;46729;43.010;24.320;2022-07-23T02:43:16;7.90;;;3.65;;
60880;SDS011;46729;43.010;24.320;2022-07-23T02:45:41;8.90;;;4.35;;
60880;SDS011;46729;43.010;24.320;2022-07-23T02:48:07;11.70;;;3.75;;
60880;SDS011;46729;43.010;24.320;2022-07-23T02:50:33;9.13;;;4.40;;
60880;SDS011;46729;43.010;24.320;2022-07-23T02:52:58;9.05;;;3.83;;
60880;SDS011;46729;43.010;24.320;2022-07-23T02:55:24;9.55;;;4.10;;
60880;SDS011;46729;43.010;24.320;2022-07-23T02:57:50;7.80;;;3.88;;
60880;SDS011;46729;43.010;24.320;2022-07-23T03:00:16;9.30;;;4.72;;
60880;SDS011;46729;43.010;24.320;2022-07-23T03:02:41;8.93;;;3.72;;
60880;SDS011;46729;43.010;24.320;2022-07-23T03:05:07;8.48;;;3.90;;
60880;SDS011;46729;43.010;24.320;2022-07-23T03:07:33;5.50;;;3.65;;
60880;SDS011;46729;43.010;24.320;2022-07-23T03:09:58;10.35;;;4.00;;
60880;SDS011;46729;43.010;24.320;2022-07-23T03:12:24;9.98;;;3.58;;
60880;SDS011;46729;43.010;24.320;2022-07-23T03:14:50;8.65;;;3.75;;
60880;SDS011;46729;43.010;24.320;2022-07-23T03:17:16;6.95;;;4.07;;
60880;SDS011;46729;43.010;24.320;2022-07-23T03:19:42;12.55;;;3.83;;
60880;SDS011;46729;43.010;24.320;2022-07-23T03:22:08;9.18;;;3.65;;
60880;SDS011;46729;43.010;24.320;2022-07-23T03:24:34;8.68;;;3.92;;
60880;SDS011;46729;43.010;24.320;2022-07-23T03:27:21;10.13;;;4.20;;
60880;SDS011;46729;43.010;24.320;2022-07-23T03:29:48;7.05;;;3.95;;
60880;SDS011;46729;43.010;24.320;2022-07-23T03:32:14;9.50;;;3.92;;
60880;SDS011;46729;43.010;24.320;2022-07-23T03:34:40;13.38;;;3.55;;
60880;SDS011;46729;43.010;24.320;2022-07-23T03:37:06;8.05;;;3.47;;
60880;SDS011;46729;43.010;24.320;2022-07-23T03:39:32;8.77;;;4.03;;
60880;SDS011;46729;43.010;24.320;2022-07-23T03:41:57;7.40;;;3.65;;
60880;SDS011;46729;43.010;24.320;2022-07-23T03:44:23;11.10;;;4.63;;
60880;SDS011;46729;43.010;24.320;2022-07-23T03:46:48;8.77;;;4.22;;
60880;SDS011;46729;43.010;24.320;2022-07-23T03:49:14;8.95;;;3.78;;
60880;SDS011;46729;43.010;24.320;2022-07-23T03:51:39;6.78;;;3.47;;
60880;SDS011;46729;43.010;24.320;2022-07-23T03:54:05;7.78;;;3.83;;
60880;SDS011;46729;43.010;24.320;2022-07-23T03:56:31;5.75;;;3.55;;
60880;SDS011;46729;43.010;24.320;2022-07-23T03:58:56;10.52;;;3.72;;
60880;SDS011;46729;43.010;24.320;2022-07-23T04:01:22;8.30;;;3.65;;
60880;SDS011;46729;43.010;24.320;2022-07-23T04:03:48;7.47;;;4.30;;
60880;SDS011;46729;43.010;24.320;2022-07-23T04:06:13;9.85;;;4.10;;
60880;SDS011;46729;43.010;24.320;2022-07-23T04:08:39;6.50;;;3.80;;
60880;SDS011;46729;43.010;24.320;2022-07-23T04:11:05;8.65;;;4.28;;
60880;SDS011;46729;43.010;24.320;2022-07-23T04:13:30;8.70;;;3.60;;
60880;SDS011;46729;43.010;24.320;2022-07-23T04:15:57;10.00;;;4.32;;
60880;SDS011;46729;43.010;24.320;2022-07-23T04:18:23;14.48;;;3.55;;
60880;SDS011;46729;43.010;24.320;2022-07-23T04:20:51;14.98;;;4.30;;
60880;SDS011;46729;43.010;24.320;2022-07-23T04:23:17;7.45;;;3.70;;
60880;SDS011;46729;43.010;24.320;2022-07-23T04:25:43;17.52;;;4.10;;
60880;SDS011;46729;43.010;24.320;2022-07-23T04:28:09;10.48;;;3.72;;
60880;SDS011;46729;43.010;24.320;2022-07-23T04:30:34;12.50;;;4.22;;
60880;SDS011;46729;43.010;24.320;2022-07-23T04:33:00;8.52;;;3.78;;
60880;SDS011;46729;43.010;24.320;2022-07-23T04:35:26;14.40;;;3.83;;
60880;SDS011;46729;43.010;24.320;2022-07-23T04:37:51;20.67;;;4.40;;
60880;SDS011;46729;43.010;24.320;2022-07-23T04:40:17;10.80;;;4.55;;
60880;SDS011;46729;43.010;24.320;2022-07-23T04:42:43;8.55;;;4.85;;
60880;SDS011;46729;43.010;24.320;2022-07-23T04:45:09;7.35;;;3.90;;
60880;SDS011;46729;43.010;24.320;2022-07-23T04:47:34;11.13;;;3.85;;
60880;SDS011;46729;43.010;24.320;2022-07-23T04:50:00;8.60;;;3.88;;
60880;SDS011;46729;43.010;24.320;2022-07-23T04:52:26;7.97;;;4.00;;
60880;SDS011;46729;43.010;24.320;2022-07-23T04:54:51;7.45;;;3.88;;
60880;SDS011;46729;43.010;24.320;2022-07-23T04:57:17;10.90;;;4.22;;
60880;SDS011;46729;43.010;24.320;2022-07-23T04:59:42;12.02;;;3.92;;
60880;SDS011;46729;43.010;24.320;2022-07-23T05:02:08;10.52;;;4.05;;
60880;SDS011;46729;43.010;24.320;2022-07-23T05:04:34;14.82;;;3.45;;
60880;SDS011;46729;43.010;24.320;2022-07-23T05:06:59;7.32;;;3.72;;
60880;SDS011;46729;43.010;24.320;2022-07-23T05:09:25;9.95;;;4.53;;
60880;SDS011;46729;43.010;24.320;2022-07-23T05:11:51;7.82;;;3.67;;
60880;SDS011;46729;43.010;24.320;2022-07-23T05:14:16;11.32;;;4.93;;
60880;SDS011;46729;43.010;24.320;2022-07-23T05:16:42;7.93;;;4.18;;
60880;SDS011;46729;43.010;24.320;2022-07-23T05:19:08;6.68;;;3.90;;
60880;SDS011;46729;43.010;24.320;2022-07-23T05:21:33;7.85;;;3.92;;
60880;SDS011;46729;43.010;24.320;2022-07-23T05:23:59;8.73;;;4.30;;
60880;SDS011;46729;43.010;24.320;2022-07-23T05:26:25;10.93;;;4.35;;
60880;SDS011;46729;43.010;24.320;2022-07-23T05:28:50;9.50;;;3.92;;
60880;SDS011;46729;43.010;24.320;2022-07-23T05:31:16;8.95;;;4.13;;
60880;SDS011;46729;43.010;24.320;2022-07-23T05:33:42;6.15;;;3.53;;
60880;SDS011;46729;43.010;24.320;2022-07-23T05:36:08;10.60;;;4.00;;
60880;SDS011;46729;43.010;24.320;2022-07-23T05:38:34;7.00;;;3.85;;
60880;SDS011;46729;43.010;24.320;2022-07-23T05:41:00;6.45;;;3.72;;
60880;SDS011;46729;43.010;24.320;2022-07-23T05:43:27;8.48;;;3.85;;
60880;SDS011;46729;43.010;24.320;2022-07-23T05:45:53;10.35;;;4.65;;
60880;SDS011;46729;43.010;24.320;2022-07-23T05:48:18;7.03;;;3.88;;
60880;SDS011;46729;43.010;24.320;2022-07-23T05:50:45;11.25;;;4.15;;
60880;SDS011;46729;43.010;24.320;2022-07-23T05:53:11;13.70;;;4.28;;
60880;SDS011;46729;43.010;24.320;2022-07-23T05:55:37;9.90;;;4.22;;
60880;SDS011;46729;43.010;24.320;2022-07-23T05:58:03;10.52;;;3.97;;
60880;SDS011;46729;43.010;24.320;2022-07-23T06:00:29;9.02;;;4.05;;
60880;SDS011;46729;43.010;24.320;2022-07-23T06:02:55;10.15;;;4.35;;
60880;SDS011;46729;43.010;24.320;2022-07-23T06:05:21;7.97;;;3.92;;
60880;SDS011;46729;43.010;24.320;2022-07-23T06:07:47;5.85;;;3.75;;
60880;SDS011;46729;43.010;24.320;2022-07-23T06:10:13;7.55;;;4.15;;
60880;SDS011;46729;43.010;24.320;2022-07-23T06:12:39;11.75;;;3.70;;
60880;SDS011;46729;43.010;24.320;2022-07-23T06:15:04;10.52;;;4.47;;
60880;SDS011;46729;43.010;24.320;2022-07-23T06:17:31;8.55;;;4.05;;
60880;SDS011;46729;43.010;24.320;2022-07-23T06:19:56;9.52;;;3.92;;
60880;SDS011;46729;43.010;24.320;2022-07-23T06:22:22;7.90;;;3.70;;
60880;SDS011;46729;43.010;24.320;2022-07-23T06:24:50;8.38;;;4.10;;
60880;SDS011;46729;43.010;24.320;2022-07-23T06:27:19;12.15;;;4.18;;
60880;SDS011;46729;43.010;24.320;2022-07-23T06:29:44;10.93;;;4.57;;
60880;SDS011;46729;43.010;24.320;2022-07-23T06:32:10;14.13;;;4.22;;
60880;SDS011;46729;43.010;24.320;2022-07-23T06:34:36;9.35;;;4.57;;
60880;SDS011;46729;43.010;24.320;2022-07-23T06:37:03;18.70;;;8.30;;
60880;SDS011;46729;43.010;24.320;2022-07-23T06:39:30;10.68;;;5.65;;
60880;SDS011;46729;43.010;24.320;2022-07-23T06:41:57;9.45;;;4.03;;
60880;SDS011;46729;43.010;24.320;2022-07-23T06:44:24;11.55;;;5.30;;
60880;SDS011;46729;43.010;24.320;2022-07-23T06:46:49;11.90;;;4.90;;
60880;SDS011;46729;43.010;24.320;2022-07-23T06:49:16;21.83;;;9.75;;
60880;SDS011;46729;43.010;24.320;2022-07-23T06:51:42;15.07;;;6.72;;
60880;SDS011;46729;43.010;24.320;2022-07-23T06:54:09;10.10;;;3.80;;
60880;SDS011;46729;43.010;24.320;2022-07-23T06:56:35;22.65;;;4.85;;
60880;SDS011;46729;43.010;24.320;2022-07-23T06:59:01;12.68;;;3.63;;
60880;SDS011;46729;43.010;24.320;2022-07-23T07:01:27;9.60;;;4.07;;
60880;SDS011;46729;43.010;24.320;2022-07-23T07:03:54;14.40;;;4.95;;
60880;SDS011;46729;43.010;24.320;2022-07-23T07:06:22;20.95;;;4.18;;
60880;SDS011;46729;43.010;24.320;2022-07-23T07:08:49;27.67;;;4.53;;
60880;SDS011;46729;43.010;24.320;2022-07-23T07:11:15;16.63;;;3.80;;
60880;SDS011;46729;43.010;24.320;2022-07-23T07:13:41;13.68;;;4.10;;
60880;SDS011;46729;43.010;24.320;2022-07-23T07:16:08;13.30;;;3.65;;
60880;SDS011;46729;43.010;24.320;2022-07-23T07:18:34;10.50;;;4.55;;
60880;SDS011;46729;43.010;24.320;2022-07-23T07:20:59;8.75;;;3.60;;
60880;SDS011;46729;43.010;24.320;2022-07-23T07:23:27;9.32;;;3.88;;
60880;SDS011;46729;43.010;24.320;2022-07-23T07:25:54;14.57;;;4.55;;
60880;SDS011;46729;43.010;24.320;2022-07-23T07:28:20;15.52;;;4.38;;
60880;SDS011;46729;43.010;24.320;2022-07-23T07:30:48;15.27;;;4.00;;
60880;SDS011;46729;43.010;24.320;2022-07-23T07:33:13;10.80;;;3.85;;
60880;SDS011;46729;43.010;24.320;2022-07-23T07:35:39;7.85;;;4.32;;
60880;SDS011;46729;43.010;24.320;2022-07-23T07:38:05;12.20;;;3.70;;
60880;SDS011;46729;43.010;24.320;2022-07-23T07:40:32;7.13;;;4.15;;
60880;SDS011;46729;43.010;24.320;2022-07-23T07:42:59;13.18;;;3.70;;
60880;SDS011;46729;43.010;24.320;2022-07-23T07:45:26;10.40;;;3.42;;
60880;SDS011;46729;43.010;24.320;2022-07-23T07:47:53;9.88;;;3.88;;
60880;SDS011;46729;43.010;24.320;2022-07-23T07:50:20;18.52;;;8.60;;
60880;SDS011;46729;43.010;24.320;2022-07-23T08:10:23;13.43;;;3.58;;
60880;SDS011;46729;43.010;24.320;2022-07-23T08:12:52;17.50;;;3.90;;
60880;SDS011;46729;43.010;24.320;2022-07-23T08:15:23;24.33;;;8.85;;
60880;SDS011;46729;43.010;24.320;2022-07-23T08:17:51;11.52;;;5.68;;
60880;SDS011;46729;43.010;24.320;2022-07-23T08:20:19;13.00;;;3.40;;
60880;SDS011;46729;43.010;24.320;2022-07-23T08:22:51;14.07;;;3.67;;
60880;SDS011;46729;43.010;24.320;2022-07-23T08:25:28;13.32;;;3.47;;
60880;SDS011;46729;43.010;24.320;2022-07-23T08:27:57;9.73;;;3.90;;
60880;SDS011;46729;43.010;24.320;2022-07-23T08:30:25;10.48;;;3.75;;
60880;SDS011;46729;43.010;24.320;2022-07-23T08:32:55;18.75;;;4.30;;
60880;SDS011;46729;43.010;24.320;2022-07-23T08:35:36;15.15;;;4.28;;
60880;SDS011;46729;43.010;24.320;2022-07-23T08:38:05;9.60;;;3.45;;
60880;SDS011;46729;43.010;24.320;2022-07-23T08:40:34;11.55;;;3.72;;
60880;SDS011;46729;43.010;24.320;2022-07-23T08:43:14;12.73;;;3.65;;
60880;SDS011;46729;43.010;24.320;2022-07-23T08:45:42;8.90;;;3.92;;
60880;SDS011;46729;43.010;24.320;2022-07-23T08:48:17;11.30;;;3.63;;
60880;SDS011;46729;43.010;24.320;2022-07-23T08:50:47;10.15;;;3.70;;
60880;SDS011;46729;43.010;24.320;2022-07-23T08:53:16;18.20;;;3.75;;
60880;SDS011;46729;43.010;24.320;2022-07-23T08:55:45;9.10;;;4.60;;
60880;SDS011;46729;43.010;24.320;2022-07-23T08:58:16;10.88;;;4.63;;
60880;SDS011;46729;43.010;24.320;2022-07-23T09:00:44;16.00;;;4.07;;
60880;SDS011;46729;43.010;24.320;2022-07-23T09:03:16;11.55;;;4.10;;
60880;SDS011;46729;43.010;24.320;2022-07-23T09:05:47;19.67;;;7.90;;
60880;SDS011;46729;43.010;24.320;2022-07-23T09:08:17;15.02;;;4.13;;
60880;SDS011;46729;43.010;24.320;2022-07-23T09:11:00;14.48;;;4.90;;
60880;SDS011;46729;43.010;24.320;2022-07-23T09:16:17;11.38;;;5.50;;
60880;SDS011;46729;43.010;24.320;2022-07-23T09:18:55;23.27;;;4.10;;
60880;SDS011;46729;43.010;24.320;2022-07-23T09:21:32;13.05;;;4.55;;
60880;SDS011;46729;43.010;24.320;2022-07-23T09:24:04;10.98;;;4.75;;
60880;SDS011;46729;43.010;24.320;2022-07-23T09:26:44;14.60;;;6.85;;
60880;SDS011;46729;43.010;24.320;2022-07-23T09:29:22;19.08;;;7.28;;
60880;SDS011;46729;43.010;24.320;2022-07-23T09:31:55;20.27;;;4.68;;
60880;SDS011;46729;43.010;24.320;2022-07-23T09:34:36;18.20;;;7.13;;
60880;SDS011;46729;43.010;24.320;2022-07-23T09:37:16;14.75;;;6.53;;
60880;SDS011;46729;43.010;24.320;2022-07-23T09:39:44;15.48;;;7.80;;
60880;SDS011;46729;43.010;24.320;2022-07-23T09:42:24;15.07;;;5.05;;
60880;SDS011;46729;43.010;24.320;2022-07-23T09:47:20;14.63;;;4.30;;
60880;SDS011;46729;43.010;24.320;2022-07-23T09:52:46;130.85;;;20.33;;
60880;SDS011;46729;43.010;24.320;2022-07-23T09:55:15;248.43;;;22.42;;
60880;SDS011;46729;43.010;24.320;2022-07-23T09:57:43;36.67;;;8.35;;
60880;SDS011;46729;43.010;24.320;2022-07-23T10:00:31;14.80;;;8.13;;
60880;SDS011;46729;43.010;24.320;2022-07-23T10:02:58;6.97;;;3.83;;
60880;SDS011;46729;43.010;24.320;2022-07-23T10:05:25;19.58;;;6.15;;
60880;SDS011;46729;43.010;24.320;2022-07-23T10:07:53;36.13;;;14.70;;
60880;SDS011;46729;43.010;24.320;2022-07-23T10:10:21;30.45;;;10.40;;
60880;SDS011;46729;43.010;24.320;2022-07-23T10:12:53;16.67;;;8.05;;
60880;SDS011;46729;43.010;24.320;2022-07-23T10:15:36;28.08;;;7.50;;
60880;SDS011;46729;43.010;24.320;2022-07-23T10:18:03;20.70;;;7.85;;
60880;SDS011;46729;43.010;24.320;2022-07-23T10:20:30;20.65;;;10.25;;
60880;SDS011;46729;43.010;24.320;2022-07-23T10:23:05;28.45;;;8.07;;
60880;SDS011;46729;43.010;24.320;2022-07-23T10:25:45;18.77;;;7.95;;
60880;SDS011;46729;43.010;24.320;2022-07-23T10:31:28;17.63;;;4.63;;
60880;SDS011;46729;43.010;24.320;2022-07-23T10:37:51;13.75;;;4.57;;
60880;SDS011;46729;43.010;24.320;2022-07-23T10:40:23;35.28;;;10.57;;
60880;SDS011;46729;43.010;24.320;2022-07-23T10:42:50;91.68;;;10.50;;
60880;SDS011;46729;43.010;24.320;2022-07-23T10:47:56;56.83;;;7.22;;
60880;SDS011;46729;43.010;24.320;2022-07-23T10:51:15;103.45;;;13.23;;
60880;SDS011;46729;43.010;24.320;2022-07-23T10:53:57;14.90;;;4.53;;
60880;SDS011;46729;43.010;24.320;2022-07-23T10:59:24;127.07;;;11.85;;
60880;SDS011;46729;43.010;24.320;2022-07-23T11:01:52;31.25;;;7.97;;
60880;SDS011;46729;43.010;24.320;2022-07-23T11:04:19;26.38;;;9.57;;
60880;SDS011;46729;43.010;24.320;2022-07-23T11:09:29;32.80;;;12.13;;
60880;SDS011;46729;43.010;24.320;2022-07-23T11:18:20;20.98;;;10.40;;
60880;SDS011;46729;43.010;24.320;2022-07-23T11:20:25;10.55;;;5.07;;
60880;SDS011;46729;43.010;24.320;2022-07-23T11:22:54;12.57;;;4.60;;
60880;SDS011;46729;43.010;24.320;2022-07-23T11:27:51;37.03;;;7.50;;
60880;SDS011;46729;43.010;24.320;2022-07-23T11:35:38;60.72;;;9.98;;
60880;SDS011;46729;43.010;24.320;2022-07-23T11:40:38;11.18;;;4.63;;
60880;SDS011;46729;43.010;24.320;2022-07-23T11:43:06;15.52;;;9.80;;
60880;SDS011;46729;43.010;24.320;2022-07-23T11:45:37;20.08;;;10.82;;
60880;SDS011;46729;43.010;24.320;2022-07-23T11:48:07;15.52;;;4.90;;
60880;SDS011;46729;43.010;24.320;2022-07-23T11:53:03;19.23;;;9.40;;
60880;SDS011;46729;43.010;24.320;2022-07-23T11:55:30;15.63;;;4.90;;
60880;SDS011;46729;43.010;24.320;2022-07-23T11:57:57;10.88;;;4.68;;
60880;SDS011;46729;43.010;24.320;2022-07-23T12:00:25;22.60;;;4.90;;
60880;SDS011;46729;43.010;24.320;2022-07-23T12:02:55;110.43;;;15.02;;
60880;SDS011;46729;43.010;24.320;2022-07-23T12:05:26;140.07;;;17.67;;
60880;SDS011;46729;43.010;24.320;2022-07-23T12:07:57;10.98;;;4.05;;
60880;SDS011;46729;43.010;24.320;2022-07-23T12:10:27;22.35;;;4.90;;
60880;SDS011;46729;43.010;24.320;2022-07-23T12:13:00;171.20;;;26.67;;
60880;SDS011;46729;43.010;24.320;2022-07-23T12:15:35;19.95;;;7.72;;
60880;SDS011;46729;43.010;24.320;2022-07-23T12:18:06;19.27;;;7.25;;
60880;SDS011;46729;43.010;24.320;2022-07-23T12:20:41;23.10;;;9.35;;
60880;SDS011;46729;43.010;24.320;2022-07-23T12:23:10;20.75;;;7.38;;
60880;SDS011;46729;43.010;24.320;2022-07-23T12:25:41;15.20;;;7.25;;
60880;SDS011;46729;43.010;24.320;2022-07-23T12:28:16;16.20;;;6.03;;
60880;SDS011;46729;43.010;24.320;2022-07-23T12:30:46;19.23;;;9.65;;
60880;SDS011;46729;43.010;24.320;2022-07-23T12:35:57;12.93;;;4.28;;
60880;SDS011;46729;43.010;24.320;2022-07-23T12:38:27;9.60;;;3.97;;
60880;SDS011;46729;43.010;24.320;2022-07-23T12:40:58;24.83;;;8.23;;
60880;SDS011;46729;43.010;24.320;2022-07-23T12:46:08;24.58;;;12.82;;
60880;SDS011;46729;43.010;24.320;2022-07-23T12:48:51;16.27;;;6.57;;
60880;SDS011;46729;43.010;24.320;2022-07-23T12:51:25;15.90;;;4.53;;
60880;SDS011;46729;43.010;24.320;2022-07-23T12:53:59;125.65;;;54.78;;
60880;SDS011;46729;43.010;24.320;2022-07-23T12:56:33;101.75;;;41.83;;
60880;SDS011;46729;43.010;24.320;2022-07-23T12:59:07;116.03;;;59.97;;
60880;SDS011;46729;43.010;24.320;2022-07-23T13:01:45;64.38;;;32.50;;
60880;SDS011;46729;43.010;24.320;2022-07-23T13:04:20;18.97;;;7.03;;
60880;SDS011;46729;43.010;24.320;2022-07-23T13:06:52;14.23;;;4.72;;
60880;SDS011;46729;43.010;24.320;2022-07-23T13:09:22;9.60;;;4.43;;
60880;SDS011;46729;43.010;24.320;2022-07-23T13:11:50;15.70;;;6.55;;
60880;SDS011;46729;43.010;24.320;2022-07-23T13:14:18;16.17;;;4.30;;
60880;SDS011;46729;43.010;24.320;2022-07-23T13:16:47;17.00;;;5.65;;
60880;SDS011;46729;43.010;24.320;2022-07-23T13:19:15;14.97;;;4.67;;
60880;SDS011;46729;43.010;24.320;2022-07-23T13:21:42;13.82;;;4.65;;
60880;SDS011;46729;43.010;24.320;2022-07-23T13:24:12;13.32;;;4.47;;
60880;SDS011;46729;43.010;24.320;2022-07-23T13:26:40;12.98;;;7.68;;
60880;SDS011;46729;43.010;24.320;2022-07-23T13:29:07;26.05;;;9.25;;
60880;SDS011;46729;43.010;24.320;2022-07-23T13:31:35;21.63;;;7.32;;
60880;SDS011;46729;43.010;24.320;2022-07-23T13:34:03;24.15;;;13.85;;
60880;SDS011;46729;43.010;24.320;2022-07-23T13:36:30;20.38;;;8.07;;
60880;SDS011;46729;43.010;24.320;2022-07-23T13:38:57;21.20;;;7.35;;
60880;SDS011;46729;43.010;24.320;2022-07-23T13:41:24;17.70;;;5.22;;
60880;SDS011;46729;43.010;24.320;2022-07-23T13:43:51;20.73;;;7.13;;
60880;SDS011;46729;43.010;24.320;2022-07-23T13:46:18;15.48;;;4.57;;
60880;SDS011;46729;43.010;24.320;2022-07-23T13:48:45;28.95;;;6.85;;
60880;SDS011;46729;43.010;24.320;2022-07-23T13:51:12;15.65;;;5.93;;
60880;SDS011;46729;43.010;24.320;2022-07-23T13:53:39;32.42;;;11.52;;
60880;SDS011;46729;43.010;24.320;2022-07-23T13:56:06;15.43;;;5.20;;
60880;SDS011;46729;43.010;24.320;2022-07-23T13:58:32;29.60;;;8.60;;
60880;SDS011;46729;43.010;24.320;2022-07-23T14:00:59;51.95;;;14.00;;
60880;SDS011;46729;43.010;24.320;2022-07-23T14:03:26;32.20;;;13.50;;
60880;SDS011;46729;43.010;24.320;2022-07-23T14:05:53;22.50;;;7.68;;
60880;SDS011;46729;43.010;24.320;2022-07-23T14:08:19;18.05;;;6.53;;
60880;SDS011;46729;43.010;24.320;2022-07-23T14:10:46;15.20;;;7.47;;
60880;SDS011;46729;43.010;24.320;2022-07-23T14:13:13;13.02;;;5.15;;
60880;SDS011;46729;43.010;24.320;2022-07-23T14:15:40;22.00;;;7.30;;
60880;SDS011;46729;43.010;24.320;2022-07-23T14:18:07;15.70;;;5.55;;
60880;SDS011;46729;43.010;24.320;2022-07-23T14:20:34;18.50;;;4.47;;
60880;SDS011;46729;43.010;24.320;2022-07-23T14:23:01;14.02;;;5.38;;
60880;SDS011;46729;43.010;24.320;2022-07-23T14:25:28;10.38;;;4.80;;
60880;SDS011;46729;43.010;24.320;2022-07-23T14:27:55;11.50;;;5.05;;
60880;SDS011;46729;43.010;24.320;2022-07-23T14:30:22;15.13;;;5.07;;
60880;SDS011;46729;43.010;24.320;2022-07-23T14:32:53;16.08;;;5.28;;
60880;SDS011;46729;43.010;24.320;2022-07-23T14:35:20;22.15;;;6.38;;
60880;SDS011;46729;43.010;24.320;2022-07-23T14:37:48;36.63;;;8.30;;
60880;SDS011;46729;43.010;24.320;2022-07-23T14:40:15;19.80;;;6.35;;
60880;SDS011;46729;43.010;24.320;2022-07-23T14:42:41;13.98;;;5.07;;
60880;SDS011;46729;43.010;24.320;2022-07-23T14:45:08;12.43;;;4.40;;
60880;SDS011;46729;43.010;24.320;2022-07-23T14:47:35;21.73;;;5.50;;
60880;SDS011;46729;43.010;24.320;2022-07-23T14:50:02;19.58;;;8.95;;
60880;SDS011;46729;43.010;24.320;2022-07-23T14:52:30;20.25;;;8.73;;
60880;SDS011;46729;43.010;24.320;2022-07-23T14:54:57;20.88;;;9.23;;
60880;SDS011;46729;43.010;24.320;2022-07-23T14:57:23;14.15;;;6.13;;
60880;SDS011;46729;43.010;24.320;2022-07-23T14:59:51;10.32;;;4.72;;
60880;SDS011;46729;43.010;24.320;2022-07-23T15:02:18;22.65;;;5.30;;
60880;SDS011;46729;43.010;24.320;2022-07-23T15:04:45;16.58;;;4.35;;
60880;SDS011;46729;43.010;24.320;2022-07-23T15:07:12;17.73;;;5.18;;
60880;SDS011;46729;43.010;24.320;2022-07-23T15:09:38;19.75;;;5.13;;
60880;SDS011;46729;43.010;24.320;2022-07-23T15:12:06;17.20;;;4.45;;
60880;SDS011;46729;43.010;24.320;2022-07-23T15:14:33;12.60;;;4.20;;
60880;SDS011;46729;43.010;24.320;2022-07-23T15:17:00;16.60;;;4.78;;
60880;SDS011;46729;43.010;24.320;2022-07-23T15:19:27;17.42;;;4.75;;
60880;SDS011;46729;43.010;24.320;2022-07-23T15:21:53;11.60;;;5.20;;
60880;SDS011;46729;43.010;24.320;2022-07-23T15:24:20;18.98;;;6.30;;
60880;SDS011;46729;43.010;24.320;2022-07-23T15:26:46;15.77;;;5.82;;
60880;SDS011;46729;43.010;24.320;2022-07-23T15:29:13;17.05;;;5.97;;
60880;SDS011;46729;43.010;24.320;2022-07-23T15:31:40;15.20;;;6.20;;